createdAt,value
2023-02-27T00:02:10.462Z,98689.41
2023-02-27T00:04:36.729Z,98694.09
2023-02-27T00:07:03.055Z,98698.75
2023-02-27T00:09:29.442Z,98701.75
2023-02-27T00:11:55.770Z,98704.75
2023-02-27T00:14:22.112Z,98700.31
2023-02-27T00:16:48.455Z,98694.06
2023-02-27T00:19:14.895Z,98707.47
2023-02-27T00:21:41.225Z,98707.34
2023-02-27T00:24:07.626Z,98703.75
2023-02-27T00:26:34.074Z,98706.28
2023-02-27T00:29:00.368Z,98706.16
2023-02-27T00:31:27.041Z,98707.03
2023-02-27T00:33:53.623Z,98705.00
2023-02-27T00:36:20.003Z,98705.06
2023-02-27T00:38:46.304Z,98701.44
2023-02-27T00:41:12.603Z,98704.72
2023-02-27T00:43:41.259Z,98703.75
2023-02-27T00:46:07.687Z,98707.63
2023-02-27T00:48:33.972Z,98701.13
2023-02-27T00:51:00.329Z,98706.88
2023-02-27T00:53:26.696Z,98714.41
2023-02-27T00:55:53.045Z,98711.38
2023-02-27T00:58:19.360Z,98715.41
2023-02-27T01:00:45.843Z,98715.84
2023-02-27T01:03:12.175Z,98715.41
2023-02-27T01:05:38.530Z,98715.63
2023-02-27T01:08:05.091Z,98719.69
2023-02-27T01:10:31.415Z,98715.38
2023-02-27T01:12:57.718Z,98720.88
2023-02-27T01:15:24.171Z,98718.41
2023-02-27T01:17:50.669Z,98710.84
2023-02-27T01:20:17.037Z,98710.00
2023-02-27T01:22:43.319Z,98703.03
2023-02-27T01:25:09.586Z,98705.88
2023-02-27T01:27:35.941Z,98705.22
2023-02-27T01:30:02.365Z,98701.69
2023-02-27T01:32:28.888Z,98712.47
2023-02-27T01:34:55.265Z,98700.41
2023-02-27T01:37:21.589Z,98708.50
2023-02-27T01:39:47.968Z,98704.97
2023-02-27T01:42:14.284Z,98707.59
2023-02-27T01:44:40.660Z,98699.75
2023-02-27T01:47:06.988Z,98707.72
2023-02-27T01:49:33.310Z,98713.78
2023-02-27T01:51:59.650Z,98711.31
2023-02-27T01:54:25.990Z,98714.72
2023-02-27T01:56:52.510Z,98721.78
2023-02-27T01:59:18.825Z,98716.44
2023-02-27T02:01:45.295Z,98716.56
2023-02-27T02:04:11.644Z,98715.69
2023-02-27T02:06:38.067Z,98714.81
2023-02-27T02:09:04.444Z,98715.78
2023-02-27T02:11:32.102Z,98717.56
2023-02-27T02:13:58.442Z,98719.28
2023-02-27T02:16:24.921Z,98720.03
2023-02-27T02:18:51.425Z,98716.31
2023-02-27T02:21:17.763Z,98722.38
2023-02-27T02:23:44.119Z,98719.47
2023-02-27T02:26:10.418Z,98716.56
2023-02-27T02:28:36.752Z,98712.84
2023-02-27T02:31:03.154Z,98717.03
2023-02-27T02:33:29.569Z,98714.97
2023-02-27T02:35:55.952Z,98715.50
2023-02-27T02:38:22.275Z,98707.31
2023-02-27T02:40:48.628Z,98713.97
2023-02-27T02:43:14.950Z,98709.44
2023-02-27T02:45:41.314Z,98713.47
2023-02-27T02:48:07.610Z,98707.09
2023-02-27T02:50:33.976Z,98712.94
2023-02-27T02:53:00.368Z,98711.84
2023-02-27T02:55:26.690Z,98711.56
2023-02-27T02:57:53.406Z,98717.56
2023-02-27T03:00:19.731Z,98720.78
2023-02-27T03:02:46.244Z,98716.84
2023-02-27T03:05:12.745Z,98718.84
2023-02-27T03:07:39.167Z,98722.41
2023-02-27T03:10:05.554Z,98727.25
2023-02-27T03:12:31.992Z,98719.19
2023-02-27T03:14:58.331Z,98722.16
2023-02-27T03:17:24.778Z,98732.19
2023-02-27T03:19:51.105Z,98724.50
2023-02-27T03:22:18.916Z,98729.88
2023-02-27T03:24:45.330Z,98734.25
2023-02-27T03:27:11.684Z,98733.34
2023-02-27T03:29:37.992Z,98739.28
2023-02-27T03:32:04.484Z,98736.56
2023-02-27T03:34:30.910Z,98740.72
2023-02-27T03:36:57.306Z,98736.19
2023-02-27T03:39:23.684Z,98742.81
2023-02-27T03:41:50.067Z,98746.00
2023-02-27T03:44:16.333Z,98744.88
2023-02-27T03:46:42.634Z,98751.69
2023-02-27T03:49:11.270Z,98749.59
2023-02-27T03:51:37.682Z,98751.09
2023-02-27T03:54:04.038Z,98748.97
2023-02-27T03:56:30.388Z,98752.16
2023-02-27T03:58:59.103Z,98754.50
2023-02-27T04:01:25.737Z,98757.66
2023-02-27T04:03:54.986Z,98760.81
2023-02-27T04:06:21.328Z,98756.09
2023-02-27T04:08:47.663Z,98767.13
2023-02-27T04:11:13.999Z,98759.78
2023-02-27T04:13:40.386Z,98758.47
2023-02-27T04:16:06.801Z,98761.78
2023-02-27T04:18:33.284Z,98763.16
2023-02-27T04:20:59.598Z,98763.63
2023-02-27T04:23:26.572Z,98763.34
2023-02-27T04:25:52.974Z,98762.88
2023-02-27T04:28:19.319Z,98769.50
2023-02-27T04:30:46.603Z,98768.19
2023-02-27T04:33:13.075Z,98770.34
2023-02-27T04:35:39.651Z,98769.88
2023-02-27T04:38:05.945Z,98778.28
2023-02-27T04:40:32.344Z,98783.88
2023-02-27T04:42:58.655Z,98787.88
2023-02-27T04:45:25.659Z,98781.47
2023-02-27T04:47:52.024Z,98784.41
2023-02-27T04:50:18.207Z,98784.75
2023-02-27T04:52:44.395Z,98793.81
2023-02-27T04:55:10.735Z,98786.88
2023-02-27T04:57:36.959Z,98786.38
2023-02-27T05:00:03.196Z,98783.94
2023-02-27T05:02:29.503Z,98799.41
2023-02-27T05:04:55.789Z,98804.03
2023-02-27T05:07:22.279Z,98802.56
2023-02-27T05:09:49.120Z,98800.25
2023-02-27T05:12:15.452Z,98815.56
2023-02-27T05:14:41.732Z,98808.81
2023-02-27T05:17:07.916Z,98808.34
2023-02-27T05:19:34.422Z,98812.13
2023-02-27T05:22:01.302Z,98808.16
2023-02-27T05:24:27.652Z,98803.22
2023-02-27T05:26:54.018Z,98808.19
2023-02-27T05:29:20.369Z,98811.16
2023-02-27T05:31:46.738Z,98814.91
2023-02-27T05:34:13.219Z,98817.88
2023-02-27T05:36:42.558Z,98819.03
2023-02-27T05:39:09.007Z,98816.72
2023-02-27T05:41:35.377Z,98818.69
2023-02-27T05:44:02.448Z,98818.03
2023-02-27T05:46:28.810Z,98817.25
2023-02-27T05:48:55.248Z,98821.19
2023-02-27T05:51:21.528Z,98820.69
2023-02-27T05:53:47.899Z,98813.13
2023-02-27T05:56:14.391Z,98822.00
2023-02-27T05:58:41.589Z,98810.97
2023-02-27T06:01:07.890Z,98812.97
2023-02-27T06:03:34.279Z,98795.03
2023-02-27T06:06:00.558Z,98817.88
2023-02-27T06:08:27.148Z,98822.50
2023-02-27T06:10:53.965Z,98824.63
2023-02-27T06:13:20.342Z,98825.59
2023-02-27T06:15:46.885Z,98823.31
2023-02-27T06:18:14.041Z,98829.69
2023-02-27T06:20:40.384Z,98836.91
2023-02-27T06:23:06.717Z,98835.44
2023-02-27T06:25:33.093Z,98846.13
2023-02-27T06:27:59.469Z,98843.66
2023-02-27T06:30:26.469Z,98853.50
2023-02-27T06:32:52.795Z,98849.22
2023-02-27T06:35:19.260Z,98845.97
2023-02-27T06:37:45.712Z,98848.59
2023-02-27T06:40:13.416Z,98855.19
2023-02-27T06:42:39.725Z,98857.69
2023-02-27T06:45:06.001Z,98855.88
2023-02-27T06:47:32.597Z,98855.69
2023-02-27T06:49:58.990Z,98862.78
2023-02-27T06:52:25.337Z,98858.34
2023-02-27T06:54:51.689Z,98867.72
2023-02-27T06:57:18.560Z,98866.53
2023-02-27T06:59:44.872Z,98863.66
2023-02-27T07:02:11.169Z,98864.38
2023-02-27T07:04:37.661Z,98863.50
2023-02-27T07:07:34.500Z,98865.19
2023-02-27T07:09:50.640Z,98865.50
2023-02-27T07:12:17.021Z,98876.31
2023-02-27T07:14:43.574Z,98874.22
2023-02-27T07:17:09.888Z,98872.81
2023-02-27T07:19:36.265Z,98880.94
2023-02-27T07:22:02.573Z,98873.75
2023-02-27T07:24:28.900Z,98880.41
2023-02-27T07:26:55.611Z,98877.47
2023-02-27T07:29:21.883Z,98874.47
2023-02-27T07:31:48.223Z,98886.16
2023-02-27T07:34:14.603Z,98883.47
2023-02-27T07:36:41.516Z,98882.81
2023-02-27T07:39:08.841Z,98881.69
2023-02-27T07:41:35.214Z,98884.84
2023-02-27T07:44:01.611Z,98886.75
2023-02-27T07:46:28.450Z,98890.66
2023-02-27T07:48:55.160Z,98894.53
2023-02-27T07:51:21.550Z,98896.38
2023-02-27T07:53:47.962Z,98888.34
2023-02-27T07:56:14.272Z,98888.50
2023-02-27T07:58:40.731Z,98889.25
2023-02-27T08:01:07.525Z,98896.13
2023-02-27T08:03:33.840Z,98891.13
2023-02-27T08:06:02.368Z,98892.22
2023-02-27T08:08:28.959Z,98897.63
2023-02-27T08:10:55.238Z,98895.69
2023-02-27T08:13:42.487Z,98899.78
2023-02-27T08:16:08.712Z,98896.53
2023-02-27T08:18:35.145Z,98902.47
2023-02-27T08:21:01.380Z,98913.28
2023-02-27T08:23:30.860Z,98907.69
2023-02-27T08:25:57.420Z,98904.41
2023-02-27T08:28:24.668Z,98907.56
2023-02-27T08:30:51.021Z,98895.56
2023-02-27T08:33:17.334Z,98913.53
2023-02-27T08:35:44.481Z,98911.66
2023-02-27T08:38:10.746Z,98908.75
2023-02-27T08:40:36.981Z,98910.72
2023-02-27T08:43:03.493Z,98908.63
2023-02-27T08:45:29.770Z,98920.50
2023-02-27T08:47:56.058Z,98912.22
2023-02-27T08:50:22.547Z,98916.31
2023-02-27T08:52:49.536Z,98909.78
2023-02-27T08:55:15.944Z,98905.25
2023-02-27T08:57:42.341Z,98925.00
2023-02-27T09:00:09.569Z,98920.38
2023-02-27T09:02:35.858Z,98915.13
2023-02-27T09:05:02.380Z,98909.03
2023-02-27T09:07:29.465Z,98900.53
2023-02-27T09:09:55.690Z,98902.50
2023-02-27T09:12:21.992Z,98907.97
2023-02-27T09:14:48.271Z,98904.41
2023-02-27T09:17:14.579Z,98905.25
2023-02-27T09:19:40.893Z,98891.88
2023-02-27T09:22:08.606Z,98899.06
2023-02-27T09:24:35.777Z,98897.22
2023-02-27T09:27:02.025Z,98886.94
2023-02-27T09:29:28.302Z,98887.09
2023-02-27T09:31:54.698Z,98895.56
2023-02-27T09:34:21.512Z,98887.31
2023-02-27T09:36:47.985Z,98886.03
2023-02-27T09:39:16.034Z,98879.88
2023-02-27T09:41:42.495Z,98888.84
2023-02-27T09:44:08.962Z,98894.88
2023-02-27T09:46:35.219Z,98898.88
2023-02-27T09:49:01.589Z,98893.16
2023-02-27T09:51:28.985Z,98902.69
2023-02-27T09:53:56.316Z,98902.94
2023-02-27T09:56:22.623Z,98907.69
2023-02-27T09:58:49.388Z,98907.81
2023-02-27T10:01:17.817Z,98901.88
2023-02-27T10:03:44.185Z,98900.13
2023-02-27T10:06:10.630Z,98903.50
2023-02-27T10:08:38.104Z,98907.09
2023-02-27T10:11:04.417Z,98911.63
2023-02-27T10:13:31.608Z,98911.75
2023-02-27T10:15:58.050Z,98915.94
2023-02-27T10:18:30.389Z,98916.25
2023-02-27T10:20:57.140Z,98915.53
2023-02-27T10:23:23.568Z,98918.31
2023-02-27T10:25:49.813Z,98913.06
2023-02-27T10:28:16.190Z,98913.50
2023-02-27T10:30:42.551Z,98904.53
2023-02-27T10:33:09.499Z,98910.13
2023-02-27T10:35:35.827Z,98917.78
2023-02-27T10:40:48.178Z,98923.84
2023-02-27T10:43:14.426Z,98924.53
2023-02-27T10:45:40.742Z,98913.50
2023-02-27T10:48:07.318Z,98916.16
2023-02-27T10:50:33.584Z,98910.81
2023-02-27T10:53:00.497Z,98920.50
2023-02-27T10:55:26.762Z,98914.13
2023-02-27T10:57:53.059Z,98913.69
2023-02-27T11:00:19.459Z,98911.25
2023-02-27T11:02:46.120Z,98910.13
2023-02-27T11:05:12.605Z,98906.63
2023-02-27T11:07:40.227Z,98906.75
2023-02-27T11:10:06.525Z,98900.34
2023-02-27T11:12:33.704Z,98901.44
2023-02-27T11:15:00.657Z,98899.66
2023-02-27T11:17:27.042Z,98902.22
2023-02-27T11:19:53.284Z,98897.09
2023-02-27T11:22:19.510Z,98898.59
2023-02-27T11:24:45.716Z,98894.97
2023-02-27T11:27:12.478Z,98894.31
2023-02-27T11:29:38.737Z,98887.53
2023-02-27T11:32:05.004Z,98888.84
2023-02-27T11:34:31.252Z,98885.47
2023-02-27T11:36:57.985Z,98876.97
2023-02-27T11:39:24.243Z,98878.81
2023-02-27T11:41:50.430Z,98875.56
2023-02-27T11:44:16.614Z,98873.00
2023-02-27T11:46:47.649Z,98872.78
2023-02-27T11:49:14.892Z,98871.03
2023-02-27T11:51:41.557Z,98870.44
2023-02-27T11:54:07.938Z,98873.91
2023-02-27T11:56:36.157Z,98872.19
2023-02-27T11:59:08.455Z,98869.28
2023-02-27T12:01:34.790Z,98872.19
2023-02-27T12:04:01.138Z,98871.50
2023-02-27T12:06:27.479Z,98871.03
2023-02-27T12:08:54.744Z,98865.66
2023-02-27T12:11:21.048Z,98869.50
2023-02-27T12:13:47.341Z,98868.91
2023-02-27T12:16:14.823Z,98864.88
2023-02-27T12:18:42.748Z,98867.19
2023-02-27T12:21:11.607Z,98856.47
2023-02-27T12:23:37.950Z,98865.88
2023-02-27T12:26:05.216Z,98859.75
2023-02-27T12:28:31.543Z,98847.16
2023-02-27T12:30:58.659Z,98851.25
2023-02-27T12:33:24.937Z,98863.53
2023-02-27T12:35:51.449Z,98851.06
2023-02-27T12:38:18.319Z,98853.41
2023-02-27T12:40:44.718Z,98853.88
2023-02-27T12:43:11.574Z,98856.19
2023-02-27T12:45:38.081Z,98853.97
2023-02-27T12:48:04.432Z,98850.13
2023-02-27T12:50:31.353Z,98848.38
2023-02-27T12:52:57.979Z,98841.28
2023-02-27T12:55:24.338Z,98837.41
2023-02-27T12:57:50.880Z,98838.91
2023-02-27T13:00:17.341Z,98841.03
2023-02-27T13:02:43.839Z,98842.50
2023-02-27T13:05:10.311Z,98840.19
2023-02-27T13:07:37.149Z,98848.47
2023-02-27T13:10:03.492Z,98843.78
2023-02-27T13:12:29.827Z,98833.44
2023-02-27T13:14:56.182Z,98831.72
2023-02-27T13:17:23.558Z,98828.81
2023-02-27T13:19:49.870Z,98833.13
2023-02-27T13:22:16.274Z,98830.44
2023-02-27T13:24:45.708Z,98834.97
2023-02-27T13:27:12.004Z,98836.81
2023-02-27T13:29:38.338Z,98838.00
2023-02-27T13:32:05.383Z,98840.66
2023-02-27T13:34:31.719Z,98838.34
2023-02-27T13:36:58.127Z,98835.75
2023-02-27T13:39:24.455Z,98832.53
2023-02-27T13:41:50.819Z,98829.50
2023-02-27T13:44:17.103Z,98835.28
2023-02-27T13:46:43.467Z,98833.41
2023-02-27T13:49:14.679Z,98838.31
2023-02-27T13:51:46.442Z,98847.03
2023-02-27T13:54:12.811Z,98840.03
2023-02-27T13:56:39.078Z,98840.03
2023-02-27T13:59:06.552Z,98846.44
2023-02-27T14:01:32.931Z,98845.59
2023-02-27T14:03:59.250Z,98845.16
2023-02-27T14:06:26.054Z,98845.97
2023-02-27T14:08:55.705Z,98841.44
2023-02-27T14:11:26.379Z,98840.19
2023-02-27T14:13:53.589Z,98839.13
2023-02-27T14:16:19.872Z,98840.75
2023-02-27T14:18:46.144Z,98845.53
2023-02-27T14:21:12.551Z,98840.19
2023-02-27T14:23:39.389Z,98840.63
2023-02-27T14:26:06.497Z,98845.38
2023-02-27T14:28:32.825Z,98848.75
2023-02-27T14:30:59.984Z,98843.25
2023-02-27T14:33:39.073Z,98854.66
2023-02-27T14:36:06.975Z,98858.56
2023-02-27T14:38:33.427Z,98857.16
2023-02-27T14:40:59.892Z,98853.91
2023-02-27T14:43:26.513Z,98852.25
2023-02-27T14:45:53.059Z,98849.56
2023-02-27T14:48:19.462Z,98848.97
2023-02-27T14:50:45.887Z,98849.44
2023-02-27T14:53:13.016Z,98856.25
2023-02-27T14:55:39.359Z,98855.66
2023-02-27T14:58:06.480Z,98856.13
2023-02-27T15:00:32.942Z,98864.59
2023-02-27T15:02:59.229Z,98859.72
2023-02-27T15:05:25.559Z,98865.28
2023-02-27T15:07:51.827Z,98859.59
2023-02-27T15:10:18.094Z,98860.84
2023-02-27T15:12:44.662Z,98868.25
2023-02-27T15:15:11.186Z,98860.47
2023-02-27T15:17:37.652Z,98858.25
2023-02-27T15:20:03.996Z,98871.00
2023-02-27T15:22:38.459Z,98864.25
2023-02-27T15:25:06.597Z,98862.41
2023-02-27T15:27:33.082Z,98863.44
2023-02-27T15:30:00.368Z,98870.41
2023-02-27T15:32:26.953Z,98879.00
2023-02-27T15:34:58.646Z,98877.97
2023-02-27T15:37:24.891Z,98867.88
2023-02-27T15:39:52.029Z,98872.19
2023-02-27T15:42:18.360Z,98867.41
2023-02-27T15:44:45.764Z,98870.09
2023-02-27T15:47:12.082Z,98871.75
2023-02-27T15:49:38.358Z,98877.91
2023-02-27T15:52:04.693Z,98881.38
2023-02-27T15:54:30.979Z,98878.94
2023-02-27T15:56:57.432Z,98867.41
2023-02-27T15:59:24.065Z,98873.00
2023-02-27T16:01:50.541Z,98878.56
2023-02-27T16:04:19.078Z,98876.13
2023-02-27T16:06:47.042Z,98880.88
2023-02-27T16:09:13.363Z,98875.16
2023-02-27T16:11:40.186Z,98874.56
2023-02-27T16:14:07.058Z,98880.34
2023-02-27T16:16:33.435Z,98882.41
2023-02-27T16:18:59.793Z,98883.91
2023-02-27T16:21:26.798Z,98885.16
2023-02-27T16:23:53.110Z,98894.44
2023-02-27T16:26:19.482Z,98891.38
2023-02-27T16:28:46.610Z,98895.34
2023-02-27T16:31:13.879Z,98892.88
2023-02-27T16:33:40.577Z,98901.53
2023-02-27T16:36:06.907Z,98906.50
2023-02-27T16:38:33.496Z,98910.44
2023-02-27T16:41:00.683Z,98903.69
2023-02-27T16:43:27.281Z,98896.94
2023-02-27T16:45:53.720Z,98908.03
2023-02-27T16:48:20.054Z,98911.97
2023-02-27T16:50:46.399Z,98904.59
2023-02-27T16:53:12.719Z,98907.47
2023-02-27T16:55:39.038Z,98909.53
2023-02-27T16:58:06.154Z,98913.25
2023-02-27T17:00:32.416Z,98918.81
2023-02-27T17:02:58.735Z,98917.16
2023-02-27T17:05:25.565Z,98922.50
2023-02-27T17:07:51.854Z,98926.00
2023-02-27T17:10:18.175Z,98925.16
2023-02-27T17:12:44.479Z,98927.84
2023-02-27T17:15:10.893Z,98929.50
2023-02-27T17:17:40.395Z,98924.97
2023-02-27T17:20:06.741Z,98931.09
2023-02-27T17:22:34.013Z,98927.44
2023-02-27T17:25:00.467Z,98930.31
2023-02-27T17:27:27.582Z,98929.28
2023-02-27T17:29:54.093Z,98929.28
2023-02-27T17:32:20.455Z,98938.31
2023-02-27T17:34:46.851Z,98937.50
2023-02-27T17:37:14.078Z,98941.19
2023-02-27T17:39:40.390Z,98940.63
2023-02-27T17:42:07.643Z,98941.63
2023-02-27T17:44:33.983Z,98940.81
2023-02-27T17:47:00.242Z,98934.66
2023-02-27T17:49:26.554Z,98946.34
2023-02-27T17:51:52.949Z,98944.75
2023-02-27T17:54:21.811Z,98937.97
2023-02-27T17:56:48.278Z,98947.03
2023-02-27T17:59:14.870Z,98946.19
2023-02-27T18:01:41.687Z,98946.63
2023-02-27T18:04:08.174Z,98950.31
2023-02-27T18:06:34.506Z,98948.69
2023-02-27T18:09:01.661Z,98950.31
2023-02-27T18:11:28.194Z,98953.00
2023-02-27T18:13:54.869Z,98954.38
2023-02-27T18:16:22.141Z,98959.22
2023-02-27T18:18:48.679Z,98957.13
2023-02-27T18:21:15.081Z,98962.34
2023-02-27T18:23:41.496Z,98965.94
2023-02-27T18:26:09.233Z,98966.25
2023-02-27T18:28:41.650Z,98967.25
2023-02-27T18:31:07.965Z,98972.72
2023-02-27T18:33:34.352Z,98976.78
2023-02-27T18:36:00.726Z,98975.31
2023-02-27T18:38:27.062Z,98978.53
2023-02-27T18:40:53.904Z,98970.00
2023-02-27T18:43:20.276Z,98966.78
2023-02-27T18:45:46.743Z,98971.06
2023-02-27T18:48:13.281Z,98974.25
2023-02-27T18:50:40.368Z,98971.47
2023-02-27T18:53:06.668Z,98980.84
2023-02-27T18:55:33.509Z,98977.03
2023-02-27T18:57:59.902Z,98971.38
2023-02-27T19:00:26.182Z,98979.91
2023-02-27T19:02:55.564Z,98966.66
2023-02-27T19:05:22.007Z,98973.78
2023-02-27T19:07:48.408Z,98973.09
2023-02-27T19:10:14.852Z,98969.75
2023-02-27T19:12:41.541Z,98967.63
2023-02-27T19:15:07.773Z,98968.69
2023-02-27T19:17:34.079Z,98966.59
2023-02-27T19:20:00.364Z,98974.50
2023-02-27T19:22:26.679Z,98973.91
2023-02-27T19:24:53.085Z,98974.81
2023-02-27T19:27:19.386Z,98969.56
2023-02-27T19:29:45.666Z,98965.13
2023-02-27T19:32:12.005Z,98973.00
2023-02-27T19:34:39.066Z,98979.03
2023-02-27T19:37:05.400Z,98976.00
2023-02-27T19:39:31.903Z,98979.13
2023-02-27T19:41:59.099Z,98976.09
2023-02-27T19:44:25.380Z,98976.53
2023-02-27T19:46:51.809Z,98966.72
2023-02-27T19:49:19.356Z,98972.19
2023-02-27T19:51:45.694Z,98983.75
2023-02-27T19:54:12.090Z,98986.47
2023-02-27T19:56:38.393Z,98988.41
2023-02-27T19:59:05.021Z,98990.94
2023-02-27T20:01:31.324Z,98989.97
2023-02-27T20:03:58.671Z,98988.19
2023-02-27T20:06:25.024Z,98975.69
2023-02-27T20:08:51.331Z,98980.06
2023-02-27T20:11:18.270Z,98974.81
2023-02-27T20:13:44.662Z,98985.34
2023-02-27T20:16:11.479Z,98986.81
2023-02-27T20:18:37.753Z,98986.41
2023-02-27T20:21:05.183Z,98989.09
2023-02-27T20:23:34.674Z,98990.94
2023-02-27T20:26:00.997Z,98993.97
2023-02-27T20:28:28.040Z,98995.34
2023-02-27T20:30:55.726Z,98991.97
2023-02-27T20:33:25.063Z,98989.59
2023-02-27T20:35:51.649Z,98984.09
2023-02-27T20:38:18.022Z,98983.38
2023-02-27T20:40:44.668Z,98985.09
2023-02-27T20:43:11.040Z,98976.31
2023-02-27T20:45:37.337Z,98983.78
2023-02-27T20:48:03.755Z,98983.50
2023-02-27T20:50:30.090Z,98976.75
2023-02-27T20:52:56.746Z,98978.53
2023-02-27T20:55:23.098Z,98986.69
2023-02-27T20:57:49.373Z,98987.28
2023-02-27T21:00:15.729Z,98986.47
2023-02-27T21:02:42.466Z,98982.16
2023-02-27T21:05:08.743Z,98988.78
2023-02-27T21:07:35.642Z,98978.19
2023-02-27T21:10:02.012Z,98985.25
2023-02-27T21:12:29.064Z,98993.13
2023-02-27T21:14:55.578Z,98985.22
2023-02-27T21:17:21.867Z,98991.22
2023-02-27T21:19:48.216Z,98992.13
2023-02-27T21:22:14.985Z,98992.34
2023-02-27T21:24:41.329Z,98989.31
2023-02-27T21:27:07.700Z,98992.66
2023-02-27T21:29:34.210Z,98990.66
2023-02-27T21:32:00.713Z,98991.31
2023-02-27T21:34:27.560Z,98994.91
2023-02-27T21:36:54.006Z,98997.03
2023-02-27T21:39:20.479Z,98994.63
2023-02-27T21:41:47.527Z,98995.53
2023-02-27T21:44:13.798Z,98999.06
2023-02-27T21:46:40.088Z,99007.97
2023-02-27T21:49:06.376Z,99000.03
2023-02-27T21:51:40.535Z,98998.47
2023-02-27T21:54:07.685Z,98992.13
2023-02-27T21:56:34.074Z,98993.84
2023-02-27T21:59:00.562Z,98990.19
2023-02-27T22:01:27.783Z,98991.91
2023-02-27T22:03:55.115Z,98995.19
2023-02-27T22:06:21.695Z,99001.81
2023-02-27T22:08:47.958Z,98996.09
2023-02-27T22:11:14.453Z,98978.94
2023-02-27T22:13:41.058Z,98990.78
2023-02-27T22:16:07.928Z,98991.22
2023-02-27T22:18:34.567Z,98989.59
2023-02-27T22:21:01.596Z,98988.97
2023-02-27T22:23:28.149Z,98989.19
2023-02-27T22:25:54.589Z,98987.53
2023-02-27T22:28:23.611Z,98991.25
2023-02-27T22:30:49.907Z,98994.16
2023-02-27T22:33:16.604Z,99002.38
2023-02-27T22:35:42.949Z,98991.09
2023-02-27T22:38:09.418Z,98992.09
2023-02-27T22:40:36.911Z,98995.81
2023-02-27T22:43:03.274Z,99001.38
2023-02-27T22:45:29.654Z,98998.09
2023-02-27T22:47:56.396Z,98998.53
2023-02-27T22:50:22.908Z,99008.59
2023-02-27T22:52:49.221Z,99001.63
2023-02-27T22:55:15.506Z,99001.00
2023-02-27T22:57:41.912Z,98996.94
2023-02-27T23:00:08.620Z,99000.84
2023-02-27T23:02:34.898Z,99011.97
2023-02-27T23:05:01.600Z,99002.56
2023-02-27T23:07:27.907Z,99003.78
2023-02-27T23:09:54.208Z,99008.50
2023-02-27T23:12:20.501Z,99012.44
2023-02-27T23:14:47.377Z,99015.50
2023-02-27T23:17:13.774Z,99018.63
2023-02-27T23:19:40.097Z,99012.88
2023-02-27T23:22:06.367Z,99014.94
2023-02-27T23:24:33.490Z,99015.38
2023-02-27T23:26:59.851Z,99018.47
2023-02-27T23:29:27.201Z,99001.53
2023-02-27T23:31:53.670Z,99023.63
2023-02-27T23:34:20.334Z,99030.19
2023-02-27T23:36:47.500Z,99028.75
2023-02-27T23:39:14.580Z,99031.84
2023-02-27T23:41:40.927Z,99030.25
2023-02-27T23:44:08.212Z,99038.44
2023-02-27T23:46:34.510Z,99027.19
2023-02-27T23:49:00.779Z,99016.72
2023-02-27T23:51:30.273Z,99034.16
2023-02-27T23:53:57.016Z,99034.00
2023-02-27T23:56:23.307Z,99031.97
2023-02-27T23:58:49.604Z,99027.53
